createdAt,value
2023-11-23T00:00:35.207Z,5.87
2023-11-23T00:03:03.696Z,7.73
2023-11-23T00:05:32.335Z,6.83
2023-11-23T00:08:01.560Z,6.47
2023-11-23T00:10:31.383Z,6.23
2023-11-23T00:12:59.841Z,5.60
2023-11-23T00:15:28.314Z,5.53
2023-11-23T00:17:56.804Z,5.43
2023-11-23T00:20:26.017Z,7.47
2023-11-23T00:22:56.384Z,7.30
2023-11-23T00:25:26.124Z,6.33
2023-11-23T00:27:56.051Z,5.43
2023-11-23T00:30:26.398Z,5.13
2023-11-23T00:32:54.950Z,6.80
2023-11-23T00:35:23.482Z,7.10
2023-11-23T00:37:52.575Z,6.47
2023-11-23T00:40:21.015Z,5.83
2023-11-23T00:42:49.654Z,6.43
2023-11-23T00:45:19.541Z,6.20
2023-11-23T00:47:48.080Z,5.63
2023-11-23T00:50:16.703Z,5.87
2023-11-23T00:52:45.214Z,6.10
2023-11-23T00:55:14.037Z,5.23
2023-11-23T00:57:42.506Z,5.27
2023-11-23T01:00:11.685Z,5.47
2023-11-23T01:02:41.846Z,5.00
2023-11-23T01:05:13.028Z,5.17
2023-11-23T01:07:41.465Z,4.47
2023-11-23T01:10:11.381Z,4.73
2023-11-23T01:12:39.838Z,5.00
2023-11-23T01:15:08.835Z,4.37
2023-11-23T01:17:38.252Z,5.57
2023-11-23T01:20:08.978Z,5.30
2023-11-23T01:22:37.410Z,5.60
2023-11-23T01:25:08.077Z,5.07
2023-11-23T01:27:36.565Z,6.13
2023-11-23T01:30:05.057Z,5.73
2023-11-23T01:32:34.563Z,4.60
2023-11-23T01:35:03.437Z,4.20
2023-11-23T01:37:35.728Z,4.83
2023-11-23T01:40:04.916Z,4.20
2023-11-23T01:42:33.335Z,4.87
2023-11-23T01:45:01.835Z,4.53
2023-11-23T01:47:31.096Z,4.20
2023-11-23T01:50:01.062Z,4.27
2023-11-23T01:52:29.640Z,4.30
2023-11-23T01:54:59.729Z,4.47
2023-11-23T01:57:29.686Z,4.30
2023-11-23T02:00:00.013Z,4.77
2023-11-23T02:02:28.716Z,4.07
2023-11-23T02:04:59.404Z,4.60
2023-11-23T02:07:28.203Z,4.20
2023-11-23T02:09:56.662Z,3.90
2023-11-23T02:12:26.472Z,4.40
2023-11-23T02:14:56.274Z,5.07
2023-11-23T02:17:26.281Z,5.00
2023-11-23T02:19:54.841Z,4.53
2023-11-23T02:22:23.425Z,4.70
2023-11-23T02:24:53.298Z,4.83
2023-11-23T02:27:21.812Z,4.30
2023-11-23T02:29:50.452Z,4.63
2023-11-23T02:32:19.374Z,4.40
2023-11-23T02:34:47.525Z,4.30
2023-11-23T02:37:15.699Z,4.27
2023-11-23T02:39:44.786Z,4.20
2023-11-23T02:42:14.552Z,4.37
2023-11-23T02:44:42.790Z,4.50
2023-11-23T02:47:11.033Z,4.30
2023-11-23T02:49:39.193Z,4.37
2023-11-23T02:52:07.734Z,4.10
2023-11-23T02:54:35.965Z,4.60
2023-11-23T02:57:04.193Z,4.27
2023-11-23T02:59:33.802Z,4.33
2023-11-23T03:02:02.063Z,4.20
2023-11-23T03:04:30.383Z,4.20
2023-11-23T03:06:58.565Z,4.47
2023-11-23T03:09:26.826Z,4.47
2023-11-23T03:11:55.027Z,4.50
2023-11-23T03:14:23.229Z,4.03
2023-11-23T03:16:52.770Z,4.23
2023-11-23T03:19:21.049Z,4.20
2023-11-23T03:21:49.351Z,4.40
2023-11-23T03:24:17.737Z,4.13
2023-11-23T03:26:46.747Z,4.37
2023-11-23T03:29:14.990Z,4.00
2023-11-23T03:31:43.202Z,4.87
2023-11-23T03:34:12.947Z,4.53
2023-11-23T03:36:41.155Z,4.67
2023-11-23T03:39:09.587Z,4.77
2023-11-23T03:41:37.787Z,4.60
2023-11-23T03:44:06.416Z,4.77
2023-11-23T03:46:34.853Z,4.60
2023-11-23T03:49:03.321Z,4.47
2023-11-23T03:51:33.280Z,4.70
2023-11-23T03:54:03.532Z,4.20
2023-11-23T03:56:32.026Z,4.40
2023-11-23T03:59:00.462Z,4.90
2023-11-23T04:01:29.906Z,4.97
2023-11-23T04:03:58.378Z,4.50
2023-11-23T04:06:26.808Z,4.50
2023-11-23T04:08:56.783Z,4.77
2023-11-23T04:11:25.233Z,4.70
2023-11-23T04:13:53.687Z,5.30
2023-11-23T04:16:22.235Z,4.50
2023-11-23T04:18:50.794Z,4.80
2023-11-23T04:21:19.348Z,5.00
2023-11-23T04:23:47.869Z,5.13
2023-11-23T04:26:18.021Z,5.00
2023-11-23T04:28:46.792Z,4.77
2023-11-23T04:31:15.254Z,6.10
2023-11-23T04:33:43.883Z,6.03
2023-11-23T04:36:13.491Z,6.43
2023-11-23T04:38:41.982Z,6.57
2023-11-23T04:41:10.415Z,6.90
2023-11-23T04:43:40.731Z,6.77
2023-11-23T04:46:09.391Z,7.10
2023-11-23T04:48:37.920Z,7.30
2023-11-23T04:51:07.219Z,7.60
2023-11-23T04:53:35.702Z,7.63
2023-11-23T04:56:04.186Z,7.67
2023-11-23T04:58:32.644Z,7.83
2023-11-23T05:01:02.730Z,8.60
2023-11-23T05:03:31.535Z,8.27
2023-11-23T05:06:00.303Z,7.80
2023-11-23T05:08:29.718Z,8.03
2023-11-23T05:10:58.242Z,8.73
2023-11-23T05:13:26.688Z,8.60
2023-11-23T05:15:55.227Z,8.90
2023-11-23T05:18:25.137Z,8.67
2023-11-23T05:20:53.630Z,8.57
2023-11-23T05:23:22.102Z,8.77
2023-11-23T05:25:50.627Z,9.00
2023-11-23T05:28:19.681Z,8.63
2023-11-23T05:30:48.265Z,9.63
2023-11-23T05:33:17.022Z,9.50
2023-11-23T05:35:46.865Z,9.10
2023-11-23T05:38:15.381Z,9.10
2023-11-23T05:40:43.823Z,8.60
2023-11-23T05:43:12.279Z,8.77
2023-11-23T05:45:40.776Z,9.30
2023-11-23T05:48:09.366Z,9.50
2023-11-23T05:50:38.799Z,9.20
2023-11-23T05:53:08.653Z,9.03
2023-11-23T05:55:37.293Z,9.03
2023-11-23T05:58:05.744Z,9.30
2023-11-23T06:00:34.213Z,9.00
2023-11-23T06:03:02.952Z,8.47
2023-11-23T06:05:31.495Z,9.20
2023-11-23T06:08:00.035Z,9.37
2023-11-23T06:10:29.961Z,8.97
2023-11-23T06:12:58.435Z,9.80
2023-11-23T06:15:26.924Z,8.67
2023-11-23T06:18:07.196Z,8.80
2023-11-23T06:20:42.142Z,9.10
2023-11-23T06:23:11.415Z,8.77
2023-11-23T06:25:41.441Z,9.33
2023-11-23T06:28:15.234Z,9.27
2023-11-23T06:30:46.427Z,8.87
2023-11-23T06:33:15.455Z,8.73
2023-11-23T06:35:44.041Z,9.23
2023-11-23T06:38:12.728Z,9.67
2023-11-23T06:40:42.615Z,9.83
2023-11-23T06:43:11.061Z,9.60
2023-11-23T06:45:40.065Z,9.13
2023-11-23T06:48:08.703Z,9.77
2023-11-23T06:50:37.215Z,9.40
2023-11-23T06:53:05.748Z,9.90
2023-11-23T06:55:34.564Z,9.30
2023-11-23T06:58:04.643Z,9.53
2023-11-23T07:00:33.535Z,9.93
2023-11-23T07:03:03.329Z,9.80
2023-11-23T07:05:31.766Z,9.13
2023-11-23T07:08:00.251Z,9.90
2023-11-23T07:10:29.512Z,9.17
2023-11-23T07:12:57.966Z,9.57
2023-11-23T07:15:27.980Z,9.83
2023-11-23T07:17:57.807Z,8.80
2023-11-23T07:20:26.302Z,9.63
2023-11-23T07:22:54.822Z,9.47
2023-11-23T07:25:24.424Z,8.73
2023-11-23T07:27:52.915Z,8.37
2023-11-23T07:30:21.945Z,8.83
2023-11-23T07:32:52.374Z,9.50
2023-11-23T07:35:20.987Z,9.30
2023-11-23T07:37:49.426Z,8.97
2023-11-23T07:40:18.036Z,8.80
2023-11-23T07:42:46.531Z,8.87
2023-11-23T07:45:15.788Z,9.47
2023-11-23T07:47:44.478Z,9.40
2023-11-23T07:50:17.100Z,9.80
2023-11-23T07:52:46.570Z,8.77
2023-11-23T07:55:16.879Z,8.20
2023-11-23T07:57:45.458Z,9.17
2023-11-23T08:00:14.907Z,8.50
2023-11-23T08:02:43.583Z,8.77
2023-11-23T08:05:12.237Z,6.70
2023-11-23T08:07:42.641Z,7.37
2023-11-23T08:10:13.843Z,8.43
2023-11-23T08:12:42.328Z,6.00
2023-11-23T08:15:12.053Z,7.03
2023-11-23T08:17:46.126Z,7.40
2023-11-23T08:20:17.173Z,5.80
2023-11-23T08:22:47.215Z,6.67
2023-11-23T08:25:15.644Z,6.40
2023-11-23T08:27:44.170Z,6.60
2023-11-23T08:30:14.055Z,6.50
2023-11-23T08:32:42.573Z,6.37
2023-11-23T08:35:11.315Z,6.63
2023-11-23T08:37:39.747Z,7.40
2023-11-23T08:40:10.710Z,7.60
2023-11-23T08:42:39.167Z,7.93
2023-11-23T08:45:08.379Z,6.80
2023-11-23T08:47:37.074Z,6.50
2023-11-23T08:50:06.974Z,7.97
2023-11-23T08:52:35.511Z,7.73
2023-11-23T08:55:04.716Z,6.20
2023-11-23T08:57:34.995Z,6.40
2023-11-23T09:00:04.146Z,7.47
2023-11-23T09:02:34.712Z,7.50
2023-11-23T09:05:03.350Z,6.50
2023-11-23T09:07:31.928Z,6.30
2023-11-23T09:10:00.664Z,6.67
2023-11-23T09:12:33.661Z,7.00
2023-11-23T09:15:05.958Z,5.80
2023-11-23T09:17:35.313Z,6.30
2023-11-23T09:20:05.854Z,6.87
2023-11-23T09:22:35.126Z,6.47
2023-11-23T09:25:04.038Z,6.03
2023-11-23T09:27:32.498Z,6.27
2023-11-23T09:30:01.138Z,6.30
2023-11-23T09:32:31.708Z,5.93
2023-11-23T09:35:01.049Z,5.87
2023-11-23T09:37:29.520Z,6.30
2023-11-23T09:39:58.575Z,5.53
2023-11-23T09:42:29.127Z,5.43
2023-11-23T09:44:58.488Z,5.37
2023-11-23T09:47:32.946Z,5.20
2023-11-23T09:50:04.375Z,4.50
2023-11-23T09:52:34.450Z,5.27
2023-11-23T09:55:03.835Z,5.60
2023-11-23T09:57:32.398Z,5.40
2023-11-23T10:00:00.957Z,5.33
2023-11-23T10:02:32.817Z,5.20
2023-11-23T10:05:03.852Z,5.23
2023-11-23T10:07:33.605Z,5.73
2023-11-23T10:10:06.796Z,5.57
2023-11-23T10:12:35.860Z,5.57
2023-11-23T10:15:04.628Z,6.07
2023-11-23T10:17:33.438Z,6.70
2023-11-23T10:20:10.245Z,6.33
2023-11-23T10:22:38.946Z,5.53
2023-11-23T10:25:07.980Z,6.00
2023-11-23T10:27:36.893Z,6.57
2023-11-23T10:30:07.037Z,5.63
2023-11-23T10:32:38.062Z,6.93
2023-11-23T10:35:10.843Z,7.17
2023-11-23T10:37:41.793Z,6.77
2023-11-23T10:40:14.060Z,6.30
2023-11-23T10:42:43.891Z,6.87
2023-11-23T10:45:14.097Z,6.53
2023-11-23T10:47:45.033Z,6.27
2023-11-23T10:50:14.286Z,6.30
2023-11-23T10:52:46.255Z,5.97
2023-11-23T10:55:15.021Z,5.20
2023-11-23T10:57:45.300Z,5.47
2023-11-23T11:00:17.543Z,5.60
2023-11-23T11:02:46.481Z,5.20
2023-11-23T11:05:29.566Z,5.23
2023-11-23T11:08:04.645Z,5.63
2023-11-23T11:10:36.154Z,5.17
2023-11-23T11:13:09.399Z,5.33
2023-11-23T11:15:36.936Z,5.60
2023-11-23T11:18:08.223Z,4.53
2023-11-23T11:20:37.773Z,5.10
2023-11-23T11:23:07.605Z,5.13
2023-11-23T11:25:43.972Z,5.10
2023-11-23T11:28:15.896Z,5.30
2023-11-23T11:30:47.518Z,5.57
2023-11-23T11:33:19.149Z,4.70
2023-11-23T11:35:48.266Z,4.70
2023-11-23T11:38:18.143Z,5.37
2023-11-23T11:40:47.744Z,4.57
2023-11-23T11:43:17.283Z,4.97
2023-11-23T11:45:45.762Z,4.67
2023-11-23T11:48:14.343Z,4.20
2023-11-23T11:50:44.187Z,4.63
2023-11-23T11:53:13.451Z,4.60
2023-11-23T11:55:46.727Z,4.63
2023-11-23T11:58:15.204Z,4.80
2023-11-23T12:00:45.391Z,4.77
2023-11-23T12:03:14.005Z,5.37
2023-11-23T12:05:42.628Z,5.10
2023-11-23T12:08:11.086Z,4.53
2023-11-23T12:10:40.260Z,4.80
2023-11-23T12:13:15.764Z,4.63
2023-11-23T12:15:45.150Z,4.10
2023-11-23T12:18:14.886Z,4.70
2023-11-23T12:20:43.732Z,4.33
2023-11-23T12:23:12.219Z,4.30
2023-11-23T12:25:40.658Z,4.57
2023-11-23T12:28:13.480Z,4.17
2023-11-23T12:30:41.998Z,3.80
2023-11-23T12:33:10.522Z,4.70
2023-11-23T12:35:40.172Z,4.10
2023-11-23T12:38:08.932Z,3.93
2023-11-23T12:40:37.848Z,4.23
2023-11-23T12:43:06.451Z,3.87
2023-11-23T12:45:37.301Z,4.27
2023-11-23T12:48:06.261Z,4.10
2023-11-23T12:50:34.831Z,4.10
2023-11-23T12:53:03.333Z,4.30
2023-11-23T12:55:31.930Z,4.00
2023-11-23T12:58:00.598Z,4.17
2023-11-23T13:00:30.480Z,4.20
2023-11-23T13:03:00.464Z,3.93
2023-11-23T13:05:30.777Z,4.50
2023-11-23T13:07:59.214Z,4.43
2023-11-23T13:10:28.685Z,3.97
2023-11-23T13:12:57.686Z,4.30
2023-11-23T13:15:29.290Z,4.30
2023-11-23T13:18:01.015Z,4.03
2023-11-23T13:20:29.651Z,4.63
2023-11-23T13:22:58.145Z,5.30
2023-11-23T13:25:26.622Z,4.50
2023-11-23T13:27:57.472Z,4.80
2023-11-23T13:30:27.522Z,5.33
2023-11-23T13:32:58.219Z,4.50
2023-11-23T13:35:28.662Z,5.50
2023-11-23T13:37:57.192Z,5.07
2023-11-23T13:40:25.621Z,5.60
2023-11-23T13:42:54.124Z,4.73
2023-11-23T13:45:23.989Z,5.23
2023-11-23T13:47:52.728Z,5.77
2023-11-23T13:50:21.311Z,4.60
2023-11-23T13:52:51.295Z,5.60
2023-11-23T13:55:19.863Z,5.30
2023-11-23T13:57:48.547Z,5.00
2023-11-23T14:00:21.613Z,5.30
2023-11-23T14:02:50.337Z,5.43
2023-11-23T14:05:19.817Z,5.10
2023-11-23T14:07:49.500Z,4.47
2023-11-23T14:10:19.575Z,5.47
2023-11-23T14:12:48.293Z,5.40
2023-11-23T14:15:20.548Z,5.13
2023-11-23T14:17:49.217Z,5.63
2023-11-23T14:20:18.511Z,4.53
2023-11-23T14:22:47.211Z,5.30
2023-11-23T14:25:18.081Z,5.27
2023-11-23T14:27:48.039Z,5.37
2023-11-23T14:30:19.258Z,5.40
2023-11-23T14:32:49.612Z,6.33
2023-11-23T14:35:18.234Z,4.90
2023-11-23T14:37:46.670Z,4.93
2023-11-23T14:40:16.430Z,5.77
2023-11-23T14:42:55.715Z,5.30
2023-11-23T14:45:29.441Z,4.70
2023-11-23T14:47:59.902Z,5.27
2023-11-23T14:50:30.682Z,5.10
2023-11-23T14:53:00.203Z,5.50
2023-11-23T14:55:28.788Z,5.93
2023-11-23T14:57:58.942Z,5.00
2023-11-23T15:00:30.915Z,5.73
2023-11-23T15:02:59.905Z,5.90
2023-11-23T15:05:28.402Z,5.40
2023-11-23T15:07:56.823Z,6.10
2023-11-23T15:10:25.442Z,6.60
2023-11-23T15:12:54.743Z,5.10
2023-11-23T15:15:26.800Z,5.73
2023-11-23T15:17:59.054Z,6.73
2023-11-23T15:20:27.819Z,5.90
2023-11-23T15:22:56.240Z,5.70
2023-11-23T15:25:25.009Z,7.07
2023-11-23T15:27:55.789Z,7.00
2023-11-23T15:30:24.480Z,6.20
2023-11-23T15:32:54.398Z,6.07
2023-11-23T15:35:24.422Z,8.57
2023-11-23T15:37:52.872Z,7.10
2023-11-23T15:40:21.526Z,7.37
2023-11-23T15:42:51.195Z,7.80
2023-11-23T15:45:19.813Z,7.73
2023-11-23T15:47:48.360Z,7.70
2023-11-23T15:50:17.876Z,9.63
2023-11-23T15:52:47.984Z,8.23
2023-11-23T15:55:16.590Z,9.30
2023-11-23T15:57:45.084Z,9.97
2023-11-23T16:00:14.033Z,8.77
2023-11-23T16:02:44.465Z,8.87
2023-11-23T16:05:14.136Z,8.50
2023-11-23T16:07:43.315Z,7.27
2023-11-23T16:10:13.420Z,5.37
2023-11-23T16:12:42.232Z,4.10
2023-11-23T16:15:11.665Z,3.90
2023-11-23T16:17:40.534Z,3.63
2023-11-23T16:20:15.917Z,3.77
2023-11-23T16:22:45.704Z,3.57
2023-11-23T16:25:16.855Z,3.50
2023-11-23T16:27:46.124Z,3.97
2023-11-23T16:30:15.566Z,3.73
2023-11-23T16:32:44.176Z,4.20
2023-11-23T16:35:13.099Z,3.80
2023-11-23T16:37:41.648Z,3.60
2023-11-23T16:40:12.310Z,3.93
2023-11-23T16:42:43.118Z,4.00
2023-11-23T16:45:12.895Z,4.27
2023-11-23T16:47:42.347Z,4.03
2023-11-23T16:50:12.193Z,3.80
2023-11-23T16:52:41.102Z,4.20
2023-11-23T16:55:10.341Z,4.33
2023-11-23T16:57:40.391Z,4.37
2023-11-23T17:00:13.371Z,4.17
2023-11-23T17:02:43.188Z,4.47
2023-11-23T17:05:12.003Z,4.20
2023-11-23T17:07:40.504Z,4.20
2023-11-23T17:10:10.218Z,3.93
2023-11-23T17:12:38.944Z,4.83
2023-11-23T17:15:09.099Z,7.03
2023-11-23T17:17:40.629Z,8.17
2023-11-23T17:20:09.589Z,8.20
2023-11-23T17:22:39.621Z,8.97
2023-11-23T17:25:10.252Z,9.30
2023-11-23T17:27:41.220Z,9.50
2023-11-23T17:30:10.478Z,9.50
2023-11-23T17:32:41.670Z,10.33
2023-11-23T17:35:11.141Z,9.93
2023-11-23T17:37:40.092Z,10.17
2023-11-23T17:40:10.771Z,9.93
2023-11-23T17:42:39.396Z,9.97
2023-11-23T17:45:09.248Z,10.73
2023-11-23T17:47:38.597Z,10.93
2023-11-23T17:50:10.749Z,11.33
2023-11-23T17:52:39.499Z,10.40
2023-11-23T17:55:09.106Z,11.20
2023-11-23T17:57:37.898Z,11.00
2023-11-23T18:00:07.336Z,10.60
2023-11-23T18:02:36.070Z,12.07
2023-11-23T18:05:04.629Z,11.40
2023-11-23T18:07:34.564Z,11.10
2023-11-23T18:10:03.026Z,10.73
2023-11-23T18:12:31.570Z,11.00
2023-11-23T18:15:00.096Z,10.97
2023-11-23T18:17:28.608Z,11.13
2023-11-23T18:19:57.045Z,11.07
2023-11-23T18:22:25.482Z,11.03
2023-11-23T18:24:56.365Z,12.17
2023-11-23T18:27:25.001Z,11.40
2023-11-23T18:29:54.773Z,11.07
2023-11-23T18:32:23.372Z,11.57
2023-11-23T18:34:51.844Z,11.33
2023-11-23T18:37:20.363Z,12.10
2023-11-23T18:39:50.072Z,12.07
2023-11-23T18:42:22.589Z,12.03
2023-11-23T18:44:51.104Z,11.50
2023-11-23T18:47:23.204Z,11.47
2023-11-23T18:49:52.106Z,11.40
2023-11-23T18:52:20.702Z,13.10
2023-11-23T18:54:49.186Z,12.50
2023-11-23T18:57:17.657Z,13.20
2023-11-23T18:59:48.042Z,13.00
2023-11-23T19:02:16.561Z,12.80
2023-11-23T19:04:45.187Z,12.43
2023-11-23T19:07:14.463Z,12.43
2023-11-23T19:09:42.921Z,12.60
2023-11-23T19:12:13.856Z,14.00
2023-11-23T19:14:42.891Z,13.07
2023-11-23T19:17:14.070Z,13.40
2023-11-23T19:19:42.746Z,13.67
2023-11-23T19:22:11.493Z,13.77
2023-11-23T19:24:40.318Z,13.73
2023-11-23T19:27:09.270Z,13.43
2023-11-23T19:29:45.727Z,13.53
2023-11-23T19:32:20.092Z,12.80
2023-11-23T19:34:48.995Z,14.40
2023-11-23T19:37:18.154Z,14.20
2023-11-23T19:39:48.413Z,14.33
2023-11-23T19:42:17.255Z,14.37
2023-11-23T19:44:46.013Z,15.37
2023-11-23T19:47:15.143Z,15.40
2023-11-23T19:49:45.299Z,15.73
2023-11-23T19:52:15.380Z,15.63
2023-11-23T19:54:43.895Z,16.73
2023-11-23T19:57:12.460Z,16.67
2023-11-23T19:59:40.975Z,16.20
2023-11-23T20:02:10.506Z,17.03
2023-11-23T20:04:39.045Z,17.47
2023-11-23T20:07:11.020Z,17.17
2023-11-23T20:09:39.731Z,17.13
2023-11-23T20:12:08.338Z,16.37
2023-11-23T20:14:36.832Z,17.53
2023-11-23T20:17:05.351Z,16.90
2023-11-23T20:19:34.776Z,17.93
2023-11-23T20:22:03.212Z,17.93
2023-11-23T20:24:33.048Z,18.10
2023-11-23T20:27:01.944Z,17.80
2023-11-23T20:29:30.426Z,18.40
2023-11-23T20:31:58.842Z,18.63
2023-11-23T20:34:27.358Z,19.67
2023-11-23T20:36:56.647Z,18.90
2023-11-23T20:39:25.284Z,19.63
2023-11-23T20:41:55.213Z,21.83
2023-11-23T20:44:23.745Z,20.40
2023-11-23T20:46:52.784Z,21.10
2023-11-23T20:49:21.355Z,21.60
2023-11-23T20:51:49.861Z,20.47
2023-11-23T20:54:19.044Z,21.13
2023-11-23T20:56:48.512Z,22.47
2023-11-23T20:59:18.778Z,21.57
2023-11-23T21:01:47.904Z,22.33
2023-11-23T21:04:18.271Z,21.37
2023-11-23T21:06:58.567Z,22.67
2023-11-23T21:09:30.448Z,22.57
2023-11-23T21:12:03.483Z,22.83
2023-11-23T21:14:35.143Z,22.17
2023-11-23T21:17:03.624Z,22.50
2023-11-23T21:19:32.678Z,23.00
2023-11-23T21:22:01.237Z,22.63
2023-11-23T21:24:29.732Z,23.03
2023-11-23T21:26:58.202Z,22.77
2023-11-23T21:29:26.861Z,22.53
2023-11-23T21:31:56.885Z,24.00
2023-11-23T21:34:25.345Z,22.33
2023-11-23T21:36:53.832Z,25.17
2023-11-23T21:39:24.469Z,25.60
2023-11-23T21:41:53.045Z,27.00
2023-11-23T21:44:21.702Z,27.10
2023-11-23T21:46:50.358Z,28.20
2023-11-23T21:49:20.307Z,28.20
2023-11-23T21:51:49.096Z,27.93
2023-11-23T21:54:17.738Z,28.10
2023-11-23T21:56:46.294Z,27.90
2023-11-23T21:59:15.162Z,28.37
2023-11-23T22:01:43.705Z,27.63
2023-11-23T22:04:12.648Z,28.77
2023-11-23T22:06:42.596Z,29.07
2023-11-23T22:09:12.431Z,28.93
2023-11-23T22:11:40.897Z,27.57
2023-11-23T22:14:09.355Z,28.03
2023-11-23T22:16:38.148Z,28.00
2023-11-23T22:19:07.057Z,27.37
2023-11-23T22:21:35.802Z,27.97
2023-11-23T22:24:06.102Z,27.93
2023-11-23T22:26:35.279Z,27.70
2023-11-23T22:29:04.010Z,26.93
2023-11-23T22:31:33.039Z,27.67
2023-11-23T22:34:01.844Z,26.83
2023-11-23T22:36:30.738Z,27.17
2023-11-23T22:38:59.888Z,27.77
2023-11-23T22:41:30.017Z,27.90
2023-11-23T22:43:59.538Z,27.87
2023-11-23T22:46:28.329Z,28.00
2023-11-23T22:48:56.895Z,28.13
2023-11-23T22:51:25.525Z,29.00
2023-11-23T22:53:54.162Z,29.73
2023-11-23T22:56:22.874Z,29.17
2023-11-23T22:58:52.661Z,29.63
2023-11-23T23:01:22.461Z,28.57
2023-11-23T23:03:50.946Z,28.77
2023-11-23T23:06:21.969Z,28.50
2023-11-23T23:08:50.579Z,28.10
2023-11-23T23:11:19.175Z,28.53
2023-11-23T23:13:47.615Z,29.10
2023-11-23T23:16:17.474Z,30.23
2023-11-23T23:18:47.519Z,29.90
2023-11-23T23:21:15.999Z,31.30
2023-11-23T23:23:44.494Z,29.90
2023-11-23T23:26:12.942Z,31.27
2023-11-23T23:28:41.353Z,31.47
2023-11-23T23:31:09.789Z,31.63
2023-11-23T23:33:39.972Z,32.03
2023-11-23T23:36:11.638Z,31.17
2023-11-23T23:38:40.236Z,32.17
2023-11-23T23:41:08.855Z,32.23
2023-11-23T23:43:37.637Z,32.97
2023-11-23T23:46:06.096Z,33.50
2023-11-23T23:48:34.576Z,32.60
2023-11-23T23:51:04.406Z,33.47
2023-11-23T23:53:33.259Z,32.60
2023-11-23T23:56:01.944Z,32.87
2023-11-23T23:58:30.703Z,32.20
